sensor_id;sensor_type;location;lat;lon;timestamp;P1;durP1;ratioP1;P2;durP2;ratioP2
73733;SDS011;62039;50.000;9.064;2023-02-08T00:01:08;11.50;;;7.50;;
73733;SDS011;62039;50.000;9.064;2023-02-08T00:03:36;11.23;;;7.03;;
73733;SDS011;62039;50.000;9.064;2023-02-08T00:06:03;11.47;;;6.83;;
73733;SDS011;62039;50.000;9.064;2023-02-08T00:08:30;10.10;;;7.80;;
73733;SDS011;62039;50.000;9.064;2023-02-08T00:10:58;8.80;;;7.37;;
73733;SDS011;62039;50.000;9.064;2023-02-08T00:13:26;10.30;;;7.17;;
73733;SDS011;62039;50.000;9.064;2023-02-08T00:15:53;9.37;;;7.67;;
73733;SDS011;62039;50.000;9.064;2023-02-08T00:18:20;8.57;;;6.83;;
73733;SDS011;62039;50.000;9.064;2023-02-08T00:20:47;9.13;;;7.00;;
73733;SDS011;62039;50.000;9.064;2023-02-08T00:23:14;9.13;;;7.40;;
73733;SDS011;62039;50.000;9.064;2023-02-08T00:25:41;9.60;;;7.27;;
73733;SDS011;62039;50.000;9.064;2023-02-08T00:28:11;8.60;;;6.87;;
73733;SDS011;62039;50.000;9.064;2023-02-08T00:30:40;8.67;;;6.90;;
73733;SDS011;62039;50.000;9.064;2023-02-08T00:33:08;9.77;;;6.93;;
73733;SDS011;62039;50.000;9.064;2023-02-08T00:35:35;11.37;;;7.33;;
73733;SDS011;62039;50.000;9.064;2023-02-08T00:38:02;8.07;;;6.80;;
73733;SDS011;62039;50.000;9.064;2023-02-08T00:40:28;9.30;;;6.67;;
73733;SDS011;62039;50.000;9.064;2023-02-08T00:42:55;9.67;;;7.27;;
73733;SDS011;62039;50.000;9.064;2023-02-08T00:45:21;8.67;;;6.60;;
73733;SDS011;62039;50.000;9.064;2023-02-08T00:47:49;10.37;;;6.93;;
73733;SDS011;62039;50.000;9.064;2023-02-08T00:50:16;9.33;;;7.00;;
73733;SDS011;62039;50.000;9.064;2023-02-08T00:52:42;10.03;;;7.77;;
73733;SDS011;62039;50.000;9.064;2023-02-08T00:55:09;9.20;;;6.67;;
73733;SDS011;62039;50.000;9.064;2023-02-08T00:57:35;7.30;;;6.30;;
73733;SDS011;62039;50.000;9.064;2023-02-08T01:00:03;10.33;;;7.20;;
73733;SDS011;62039;50.000;9.064;2023-02-08T01:02:31;9.57;;;7.67;;
73733;SDS011;62039;50.000;9.064;2023-02-08T01:04:59;10.60;;;7.67;;
73733;SDS011;62039;50.000;9.064;2023-02-08T01:07:25;10.77;;;7.97;;
73733;SDS011;62039;50.000;9.064;2023-02-08T01:09:52;12.07;;;8.40;;
73733;SDS011;62039;50.000;9.064;2023-02-08T01:12:18;12.70;;;8.73;;
73733;SDS011;62039;50.000;9.064;2023-02-08T01:14:45;10.57;;;8.13;;
73733;SDS011;62039;50.000;9.064;2023-02-08T01:17:12;10.97;;;8.40;;
73733;SDS011;62039;50.000;9.064;2023-02-08T01:19:38;11.13;;;8.20;;
73733;SDS011;62039;50.000;9.064;2023-02-08T01:22:09;13.80;;;9.23;;
73733;SDS011;62039;50.000;9.064;2023-02-08T01:24:35;12.10;;;8.70;;
73733;SDS011;62039;50.000;9.064;2023-02-08T01:27:02;11.67;;;8.67;;
73733;SDS011;62039;50.000;9.064;2023-02-08T01:29:28;12.47;;;9.20;;
73733;SDS011;62039;50.000;9.064;2023-02-08T01:31:55;13.33;;;8.93;;
73733;SDS011;62039;50.000;9.064;2023-02-08T01:34:21;11.00;;;8.47;;
73733;SDS011;62039;50.000;9.064;2023-02-08T01:36:48;12.90;;;8.23;;
73733;SDS011;62039;50.000;9.064;2023-02-08T01:39:16;11.70;;;9.03;;
73733;SDS011;62039;50.000;9.064;2023-02-08T01:41:43;13.07;;;8.73;;
73733;SDS011;62039;50.000;9.064;2023-02-08T01:47:14;10.23;;;7.90;;
73733;SDS011;62039;50.000;9.064;2023-02-08T01:49:41;12.47;;;7.93;;
73733;SDS011;62039;50.000;9.064;2023-02-08T01:52:08;16.93;;;10.30;;
73733;SDS011;62039;50.000;9.064;2023-02-08T01:54:41;14.47;;;10.23;;
73733;SDS011;62039;50.000;9.064;2023-02-08T01:57:12;13.57;;;9.00;;
73733;SDS011;62039;50.000;9.064;2023-02-08T01:59:40;11.50;;;8.17;;
73733;SDS011;62039;50.000;9.064;2023-02-08T02:02:10;13.37;;;8.70;;
73733;SDS011;62039;50.000;9.064;2023-02-08T02:04:40;11.47;;;7.90;;
73733;SDS011;62039;50.000;9.064;2023-02-08T02:07:06;11.97;;;7.70;;
73733;SDS011;62039;50.000;9.064;2023-02-08T02:09:35;11.03;;;7.63;;
73733;SDS011;62039;50.000;9.064;2023-02-08T02:12:08;10.37;;;7.30;;
73733;SDS011;62039;50.000;9.064;2023-02-08T02:14:36;10.80;;;7.73;;
73733;SDS011;62039;50.000;9.064;2023-02-08T02:17:04;10.67;;;7.40;;
73733;SDS011;62039;50.000;9.064;2023-02-08T02:19:32;10.97;;;7.70;;
73733;SDS011;62039;50.000;9.064;2023-02-08T02:22:23;10.97;;;7.80;;
73733;SDS011;62039;50.000;9.064;2023-02-08T02:25:16;10.53;;;7.63;;
73733;SDS011;62039;50.000;9.064;2023-02-08T02:28:05;10.53;;;6.70;;
73733;SDS011;62039;50.000;9.064;2023-02-08T02:30:59;10.97;;;7.60;;
73733;SDS011;62039;50.000;9.064;2023-02-08T02:34:05;11.43;;;7.80;;
73733;SDS011;62039;50.000;9.064;2023-02-08T02:36:40;9.80;;;7.60;;
73733;SDS011;62039;50.000;9.064;2023-02-08T02:39:15;9.60;;;7.30;;
73733;SDS011;62039;50.000;9.064;2023-02-08T02:41:51;11.27;;;7.43;;
73733;SDS011;62039;50.000;9.064;2023-02-08T02:44:23;10.47;;;7.10;;
73733;SDS011;62039;50.000;9.064;2023-02-08T02:46:57;11.30;;;7.53;;
73733;SDS011;62039;50.000;9.064;2023-02-08T02:49:31;10.60;;;7.80;;
73733;SDS011;62039;50.000;9.064;2023-02-08T02:52:02;10.10;;;7.70;;
73733;SDS011;62039;50.000;9.064;2023-02-08T02:54:33;9.07;;;7.20;;
73733;SDS011;62039;50.000;9.064;2023-02-08T02:57:06;10.17;;;7.43;;
73733;SDS011;62039;50.000;9.064;2023-02-08T02:59:36;9.73;;;7.63;;
73733;SDS011;62039;50.000;9.064;2023-02-08T03:02:04;11.93;;;8.83;;
73733;SDS011;62039;50.000;9.064;2023-02-08T03:04:48;11.27;;;8.23;;
73733;SDS011;62039;50.000;9.064;2023-02-08T03:07:21;11.67;;;8.57;;
73733;SDS011;62039;50.000;9.064;2023-02-08T03:10:13;11.43;;;8.20;;
73733;SDS011;62039;50.000;9.064;2023-02-08T03:12:50;10.90;;;8.50;;
73733;SDS011;62039;50.000;9.064;2023-02-08T03:15:27;13.40;;;8.37;;
73733;SDS011;62039;50.000;9.064;2023-02-08T03:18:03;10.77;;;7.93;;
73733;SDS011;62039;50.000;9.064;2023-02-08T03:20:40;10.10;;;7.63;;
73733;SDS011;62039;50.000;9.064;2023-02-08T03:23:12;12.30;;;8.10;;
73733;SDS011;62039;50.000;9.064;2023-02-08T03:25:46;13.07;;;8.33;;
73733;SDS011;62039;50.000;9.064;2023-02-08T03:28:18;10.70;;;8.47;;
73733;SDS011;62039;50.000;9.064;2023-02-08T03:30:50;12.63;;;8.10;;
73733;SDS011;62039;50.000;9.064;2023-02-08T03:33:23;12.23;;;8.47;;
73733;SDS011;62039;50.000;9.064;2023-02-08T03:35:57;12.47;;;8.63;;
73733;SDS011;62039;50.000;9.064;2023-02-08T03:38:28;12.30;;;9.13;;
73733;SDS011;62039;50.000;9.064;2023-02-08T03:40:59;11.70;;;8.37;;
73733;SDS011;62039;50.000;9.064;2023-02-08T03:43:29;12.00;;;8.30;;
73733;SDS011;62039;50.000;9.064;2023-02-08T03:46:00;10.87;;;7.70;;
73733;SDS011;62039;50.000;9.064;2023-02-08T03:48:33;11.10;;;8.03;;
73733;SDS011;62039;50.000;9.064;2023-02-08T03:51:05;12.00;;;8.20;;
73733;SDS011;62039;50.000;9.064;2023-02-08T03:53:33;8.30;;;7.40;;
73733;SDS011;62039;50.000;9.064;2023-02-08T03:56:02;11.37;;;8.20;;
73733;SDS011;62039;50.000;9.064;2023-02-08T03:58:33;11.10;;;8.10;;
73733;SDS011;62039;50.000;9.064;2023-02-08T04:01:08;11.37;;;7.80;;
73733;SDS011;62039;50.000;9.064;2023-02-08T04:03:40;12.20;;;9.17;;
73733;SDS011;62039;50.000;9.064;2023-02-08T04:06:10;10.80;;;8.53;;
73733;SDS011;62039;50.000;9.064;2023-02-08T04:08:38;11.47;;;8.23;;
73733;SDS011;62039;50.000;9.064;2023-02-08T04:11:04;10.13;;;7.83;;
73733;SDS011;62039;50.000;9.064;2023-02-08T04:13:31;10.60;;;8.30;;
73733;SDS011;62039;50.000;9.064;2023-02-08T04:15:57;9.90;;;8.00;;
73733;SDS011;62039;50.000;9.064;2023-02-08T04:18:25;11.07;;;8.23;;
73733;SDS011;62039;50.000;9.064;2023-02-08T04:20:51;12.53;;;8.30;;
73733;SDS011;62039;50.000;9.064;2023-02-08T04:23:19;10.10;;;7.77;;
73733;SDS011;62039;50.000;9.064;2023-02-08T04:25:46;10.43;;;8.27;;
73733;SDS011;62039;50.000;9.064;2023-02-08T04:28:12;11.60;;;8.50;;
73733;SDS011;62039;50.000;9.064;2023-02-08T04:30:39;10.67;;;8.60;;
73733;SDS011;62039;50.000;9.064;2023-02-08T04:33:06;12.53;;;8.53;;
73733;SDS011;62039;50.000;9.064;2023-02-08T04:35:32;11.27;;;8.53;;
73733;SDS011;62039;50.000;9.064;2023-02-08T04:37:59;9.57;;;7.63;;
73733;SDS011;62039;50.000;9.064;2023-02-08T04:40:27;13.20;;;8.70;;
73733;SDS011;62039;50.000;9.064;2023-02-08T04:42:53;10.57;;;8.00;;
73733;SDS011;62039;50.000;9.064;2023-02-08T04:45:20;10.17;;;7.57;;
73733;SDS011;62039;50.000;9.064;2023-02-08T04:47:46;11.07;;;8.27;;
73733;SDS011;62039;50.000;9.064;2023-02-08T04:50:13;12.17;;;8.40;;
73733;SDS011;62039;50.000;9.064;2023-02-08T04:52:39;11.03;;;8.00;;
73733;SDS011;62039;50.000;9.064;2023-02-08T04:55:06;11.80;;;8.40;;
73733;SDS011;62039;50.000;9.064;2023-02-08T04:57:34;10.87;;;8.13;;
73733;SDS011;62039;50.000;9.064;2023-02-08T05:00:01;12.87;;;9.10;;
73733;SDS011;62039;50.000;9.064;2023-02-08T05:02:27;11.20;;;8.27;;
73733;SDS011;62039;50.000;9.064;2023-02-08T05:04:54;11.30;;;8.90;;
73733;SDS011;62039;50.000;9.064;2023-02-08T05:07:20;11.50;;;8.30;;
73733;SDS011;62039;50.000;9.064;2023-02-08T05:09:47;12.17;;;8.70;;
73733;SDS011;62039;50.000;9.064;2023-02-08T05:12:13;12.90;;;8.07;;
73733;SDS011;62039;50.000;9.064;2023-02-08T05:14:41;12.53;;;9.17;;
73733;SDS011;62039;50.000;9.064;2023-02-08T05:17:08;12.47;;;8.57;;
73733;SDS011;62039;50.000;9.064;2023-02-08T05:19:34;14.57;;;9.53;;
73733;SDS011;62039;50.000;9.064;2023-02-08T05:22:01;12.47;;;8.90;;
73733;SDS011;62039;50.000;9.064;2023-02-08T05:24:28;11.57;;;8.27;;
73733;SDS011;62039;50.000;9.064;2023-02-08T05:26:54;13.27;;;8.80;;
73733;SDS011;62039;50.000;9.064;2023-02-08T05:29:21;13.00;;;9.13;;
73733;SDS011;62039;50.000;9.064;2023-02-08T05:31:49;10.83;;;8.47;;
73733;SDS011;62039;50.000;9.064;2023-02-08T05:34:15;13.73;;;9.27;;
73733;SDS011;62039;50.000;9.064;2023-02-08T05:36:42;16.07;;;10.53;;
73733;SDS011;62039;50.000;9.064;2023-02-08T05:39:08;18.37;;;11.80;;
73733;SDS011;62039;50.000;9.064;2023-02-08T05:41:35;20.17;;;13.37;;
73733;SDS011;62039;50.000;9.064;2023-02-08T05:44:01;18.73;;;13.53;;
73733;SDS011;62039;50.000;9.064;2023-02-08T05:46:28;25.03;;;15.80;;
73733;SDS011;62039;50.000;9.064;2023-02-08T05:48:56;21.13;;;15.23;;
73733;SDS011;62039;50.000;9.064;2023-02-08T05:51:22;20.93;;;14.17;;
73733;SDS011;62039;50.000;9.064;2023-02-08T05:53:49;18.57;;;12.50;;
73733;SDS011;62039;50.000;9.064;2023-02-08T05:56:15;17.27;;;12.70;;
73733;SDS011;62039;50.000;9.064;2023-02-08T05:58:42;12.87;;;10.53;;
73733;SDS011;62039;50.000;9.064;2023-02-08T06:01:09;15.80;;;11.80;;
73733;SDS011;62039;50.000;9.064;2023-02-08T06:03:37;18.77;;;11.80;;
73733;SDS011;62039;50.000;9.064;2023-02-08T06:06:06;20.27;;;12.90;;
73733;SDS011;62039;50.000;9.064;2023-02-08T06:08:32;19.03;;;12.10;;
73733;SDS011;62039;50.000;9.064;2023-02-08T06:10:59;17.87;;;11.47;;
73733;SDS011;62039;50.000;9.064;2023-02-08T06:13:25;16.43;;;11.87;;
73733;SDS011;62039;50.000;9.064;2023-02-08T06:15:52;14.77;;;11.00;;
73733;SDS011;62039;50.000;9.064;2023-02-08T06:18:19;12.97;;;9.77;;
73733;SDS011;62039;50.000;9.064;2023-02-08T06:20:45;14.63;;;9.20;;
73733;SDS011;62039;50.000;9.064;2023-02-08T06:23:13;12.77;;;8.53;;
73733;SDS011;62039;50.000;9.064;2023-02-08T06:25:39;14.47;;;9.17;;
73733;SDS011;62039;50.000;9.064;2023-02-08T06:28:06;12.27;;;8.60;;
73733;SDS011;62039;50.000;9.064;2023-02-08T06:30:33;11.67;;;8.13;;
73733;SDS011;62039;50.000;9.064;2023-02-08T06:32:59;13.00;;;9.10;;
73733;SDS011;62039;50.000;9.064;2023-02-08T06:35:26;12.70;;;9.13;;
73733;SDS011;62039;50.000;9.064;2023-02-08T06:37:52;14.73;;;9.43;;
73733;SDS011;62039;50.000;9.064;2023-02-08T06:40:20;13.77;;;10.13;;
73733;SDS011;62039;50.000;9.064;2023-02-08T06:42:47;15.53;;;11.33;;
73733;SDS011;62039;50.000;9.064;2023-02-08T06:45:14;17.30;;;12.10;;
73733;SDS011;62039;50.000;9.064;2023-02-08T06:47:41;15.27;;;11.73;;
73733;SDS011;62039;50.000;9.064;2023-02-08T06:50:07;17.37;;;12.90;;
73733;SDS011;62039;50.000;9.064;2023-02-08T06:52:34;20.07;;;13.83;;
73733;SDS011;62039;50.000;9.064;2023-02-08T06:55:01;21.37;;;12.87;;
73733;SDS011;62039;50.000;9.064;2023-02-08T06:57:29;17.47;;;13.23;;
73733;SDS011;62039;50.000;9.064;2023-02-08T06:59:56;17.07;;;12.57;;
73733;SDS011;62039;50.000;9.064;2023-02-08T07:02:22;18.67;;;11.13;;
73733;SDS011;62039;50.000;9.064;2023-02-08T07:04:49;16.73;;;11.37;;
73733;SDS011;62039;50.000;9.064;2023-02-08T07:07:15;15.50;;;10.70;;
73733;SDS011;62039;50.000;9.064;2023-02-08T07:09:42;15.60;;;9.97;;
73733;SDS011;62039;50.000;9.064;2023-02-08T07:12:10;17.67;;;11.40;;
73733;SDS011;62039;50.000;9.064;2023-02-08T07:14:39;13.87;;;10.70;;
73733;SDS011;62039;50.000;9.064;2023-02-08T07:17:07;15.47;;;11.07;;
73733;SDS011;62039;50.000;9.064;2023-02-08T07:19:34;15.50;;;10.70;;
73733;SDS011;62039;50.000;9.064;2023-02-08T07:22:00;14.27;;;10.33;;
73733;SDS011;62039;50.000;9.064;2023-02-08T07:24:27;18.73;;;11.13;;
73733;SDS011;62039;50.000;9.064;2023-02-08T07:26:54;15.63;;;10.13;;
73733;SDS011;62039;50.000;9.064;2023-02-08T07:29:20;16.23;;;10.10;;
73733;SDS011;62039;50.000;9.064;2023-02-08T07:31:48;15.97;;;11.37;;
73733;SDS011;62039;50.000;9.064;2023-02-08T07:34:15;16.37;;;11.50;;
73733;SDS011;62039;50.000;9.064;2023-02-08T07:36:41;14.53;;;10.13;;
73733;SDS011;62039;50.000;9.064;2023-02-08T07:39:08;15.80;;;10.30;;
73733;SDS011;62039;50.000;9.064;2023-02-08T07:41:34;14.23;;;10.20;;
73733;SDS011;62039;50.000;9.064;2023-02-08T07:44:01;13.50;;;8.63;;
73733;SDS011;62039;50.000;9.064;2023-02-08T07:46:27;15.20;;;9.17;;
73733;SDS011;62039;50.000;9.064;2023-02-08T07:48:55;15.27;;;10.33;;
73733;SDS011;62039;50.000;9.064;2023-02-08T07:51:22;16.83;;;9.57;;
73733;SDS011;62039;50.000;9.064;2023-02-08T07:53:48;12.60;;;9.33;;
73733;SDS011;62039;50.000;9.064;2023-02-08T07:56:15;13.97;;;9.50;;
73733;SDS011;62039;50.000;9.064;2023-02-08T07:58:42;15.03;;;9.40;;
73733;SDS011;62039;50.000;9.064;2023-02-08T08:01:09;13.30;;;10.37;;
73733;SDS011;62039;50.000;9.064;2023-02-08T08:03:47;13.47;;;9.47;;
73733;SDS011;62039;50.000;9.064;2023-02-08T08:06:16;13.43;;;9.37;;
73733;SDS011;62039;50.000;9.064;2023-02-08T08:08:42;12.13;;;8.87;;
73733;SDS011;62039;50.000;9.064;2023-02-08T08:11:09;13.57;;;9.10;;
73733;SDS011;62039;50.000;9.064;2023-02-08T08:13:35;12.27;;;8.53;;
73733;SDS011;62039;50.000;9.064;2023-02-08T08:16:02;14.50;;;8.73;;
73733;SDS011;62039;50.000;9.064;2023-02-08T08:18:29;11.67;;;7.60;;
73733;SDS011;62039;50.000;9.064;2023-02-08T08:20:55;14.60;;;9.30;;
73733;SDS011;62039;50.000;9.064;2023-02-08T08:23:23;38.87;;;16.57;;
73733;SDS011;62039;50.000;9.064;2023-02-08T08:25:50;20.80;;;11.33;;
73733;SDS011;62039;50.000;9.064;2023-02-08T08:28:16;33.30;;;18.70;;
73733;SDS011;62039;50.000;9.064;2023-02-08T08:30:43;58.60;;;30.70;;
73733;SDS011;62039;50.000;9.064;2023-02-08T08:33:10;30.13;;;16.17;;
73733;SDS011;62039;50.000;9.064;2023-02-08T08:35:37;20.37;;;12.00;;
73733;SDS011;62039;50.000;9.064;2023-02-08T08:38:04;13.50;;;9.10;;
73733;SDS011;62039;50.000;9.064;2023-02-08T08:40:32;13.17;;;8.37;;
73733;SDS011;62039;50.000;9.064;2023-02-08T08:42:59;19.10;;;11.90;;
73733;SDS011;62039;50.000;9.064;2023-02-08T08:45:25;13.10;;;8.70;;
73733;SDS011;62039;50.000;9.064;2023-02-08T08:47:52;12.30;;;8.53;;
73733;SDS011;62039;50.000;9.064;2023-02-08T08:50:18;12.63;;;7.93;;
73733;SDS011;62039;50.000;9.064;2023-02-08T08:52:45;12.37;;;7.67;;
73733;SDS011;62039;50.000;9.064;2023-02-08T08:55:11;11.73;;;7.37;;
73733;SDS011;62039;50.000;9.064;2023-02-08T08:57:39;10.93;;;8.10;;
73733;SDS011;62039;50.000;9.064;2023-02-08T09:00:06;11.83;;;8.30;;
73733;SDS011;62039;50.000;9.064;2023-02-08T09:02:34;12.73;;;8.50;;
73733;SDS011;62039;50.000;9.064;2023-02-08T09:05:00;11.47;;;7.77;;
73733;SDS011;62039;50.000;9.064;2023-02-08T09:07:27;14.03;;;8.80;;
73733;SDS011;62039;50.000;9.064;2023-02-08T09:09:53;11.37;;;7.93;;
73733;SDS011;62039;50.000;9.064;2023-02-08T09:12:20;11.67;;;7.63;;
73733;SDS011;62039;50.000;9.064;2023-02-08T09:14:48;12.20;;;8.50;;
73733;SDS011;62039;50.000;9.064;2023-02-08T09:17:14;14.33;;;8.70;;
73733;SDS011;62039;50.000;9.064;2023-02-08T09:19:41;9.90;;;7.20;;
73733;SDS011;62039;50.000;9.064;2023-02-08T09:22:07;10.73;;;7.67;;
73733;SDS011;62039;50.000;9.064;2023-02-08T09:24:34;10.23;;;7.47;;
73733;SDS011;62039;50.000;9.064;2023-02-08T09:27:00;9.77;;;7.23;;
73733;SDS011;62039;50.000;9.064;2023-02-08T09:29:28;10.70;;;7.63;;
73733;SDS011;62039;50.000;9.064;2023-02-08T09:31:56;11.80;;;8.27;;
73733;SDS011;62039;50.000;9.064;2023-02-08T09:34:22;9.63;;;7.17;;
73733;SDS011;62039;50.000;9.064;2023-02-08T09:36:49;9.93;;;7.20;;
73733;SDS011;62039;50.000;9.064;2023-02-08T09:39:17;13.97;;;8.23;;
73733;SDS011;62039;50.000;9.064;2023-02-08T09:41:51;11.63;;;7.70;;
73733;SDS011;62039;50.000;9.064;2023-02-08T09:44:30;10.47;;;6.93;;
73733;SDS011;62039;50.000;9.064;2023-02-08T09:47:02;12.67;;;7.93;;
73733;SDS011;62039;50.000;9.064;2023-02-08T09:49:35;10.53;;;6.90;;
73733;SDS011;62039;50.000;9.064;2023-02-08T09:52:07;8.87;;;6.43;;
73733;SDS011;62039;50.000;9.064;2023-02-08T09:54:38;8.60;;;6.20;;
73733;SDS011;62039;50.000;9.064;2023-02-08T09:57:10;8.53;;;6.63;;
73733;SDS011;62039;50.000;9.064;2023-02-08T09:59:41;9.80;;;7.23;;
73733;SDS011;62039;50.000;9.064;2023-02-08T10:02:18;9.00;;;7.23;;
73733;SDS011;62039;50.000;9.064;2023-02-08T10:04:53;10.30;;;7.23;;
73733;SDS011;62039;50.000;9.064;2023-02-08T10:07:23;12.30;;;8.57;;
73733;SDS011;62039;50.000;9.064;2023-02-08T10:09:51;9.67;;;7.43;;
73733;SDS011;62039;50.000;9.064;2023-02-08T10:12:19;9.50;;;7.70;;
73733;SDS011;62039;50.000;9.064;2023-02-08T10:15:01;9.30;;;6.97;;
73733;SDS011;62039;50.000;9.064;2023-02-08T10:17:40;10.27;;;7.30;;
73733;SDS011;62039;50.000;9.064;2023-02-08T10:20:27;10.27;;;6.80;;
73733;SDS011;62039;50.000;9.064;2023-02-08T10:23:14;9.20;;;7.53;;
73733;SDS011;62039;50.000;9.064;2023-02-08T10:25:59;8.57;;;6.47;;
73733;SDS011;62039;50.000;9.064;2023-02-08T10:28:39;8.23;;;6.33;;
73733;SDS011;62039;50.000;9.064;2023-02-08T10:31:19;8.27;;;5.53;;
73733;SDS011;62039;50.000;9.064;2023-02-08T10:34:00;14.47;;;9.10;;
73733;SDS011;62039;50.000;9.064;2023-02-08T10:36:28;8.93;;;6.90;;
73733;SDS011;62039;50.000;9.064;2023-02-08T10:38:58;8.40;;;6.60;;
73733;SDS011;62039;50.000;9.064;2023-02-08T10:41:27;8.17;;;6.10;;
73733;SDS011;62039;50.000;9.064;2023-02-08T10:44:00;10.47;;;7.53;;
73733;SDS011;62039;50.000;9.064;2023-02-08T10:46:31;12.83;;;7.50;;
73733;SDS011;62039;50.000;9.064;2023-02-08T10:49:07;9.20;;;7.40;;
73733;SDS011;62039;50.000;9.064;2023-02-08T10:51:41;10.37;;;7.83;;
73733;SDS011;62039;50.000;9.064;2023-02-08T10:54:11;10.73;;;8.03;;
73733;SDS011;62039;50.000;9.064;2023-02-08T10:56:41;8.70;;;6.50;;
73733;SDS011;62039;50.000;9.064;2023-02-08T10:59:17;9.63;;;7.03;;
73733;SDS011;62039;50.000;9.064;2023-02-08T11:01:46;8.40;;;5.90;;
73733;SDS011;62039;50.000;9.064;2023-02-08T11:04:15;6.33;;;5.63;;
73733;SDS011;62039;50.000;9.064;2023-02-08T11:06:43;6.00;;;5.40;;
73733;SDS011;62039;50.000;9.064;2023-02-08T11:09:18;9.23;;;6.13;;
73733;SDS011;62039;50.000;9.064;2023-02-08T11:11:47;8.53;;;6.43;;
73733;SDS011;62039;50.000;9.064;2023-02-08T11:14:15;7.77;;;5.80;;
73733;SDS011;62039;50.000;9.064;2023-02-08T11:16:47;8.60;;;6.43;;
73733;SDS011;62039;50.000;9.064;2023-02-08T11:19:19;8.23;;;6.20;;
73733;SDS011;62039;50.000;9.064;2023-02-08T11:21:48;8.13;;;6.27;;
73733;SDS011;62039;50.000;9.064;2023-02-08T11:24:21;8.20;;;6.00;;
73733;SDS011;62039;50.000;9.064;2023-02-08T11:26:52;7.83;;;6.27;;
73733;SDS011;62039;50.000;9.064;2023-02-08T11:29:19;9.40;;;7.20;;
73733;SDS011;62039;50.000;9.064;2023-02-08T11:31:55;6.90;;;5.80;;
73733;SDS011;62039;50.000;9.064;2023-02-08T11:34:28;7.37;;;6.20;;
73733;SDS011;62039;50.000;9.064;2023-02-08T11:36:55;7.83;;;6.03;;
73733;SDS011;62039;50.000;9.064;2023-02-08T11:39:24;8.03;;;6.47;;
73733;SDS011;62039;50.000;9.064;2023-02-08T11:41:55;7.23;;;6.03;;
73733;SDS011;62039;50.000;9.064;2023-02-08T11:44:25;7.03;;;6.00;;
73733;SDS011;62039;50.000;9.064;2023-02-08T11:46:55;6.47;;;5.43;;
73733;SDS011;62039;50.000;9.064;2023-02-08T11:49:25;7.20;;;6.00;;
73733;SDS011;62039;50.000;9.064;2023-02-08T11:51:57;7.13;;;5.90;;
73733;SDS011;62039;50.000;9.064;2023-02-08T11:54:34;6.50;;;5.03;;
73733;SDS011;62039;50.000;9.064;2023-02-08T11:57:03;6.40;;;5.30;;
73733;SDS011;62039;50.000;9.064;2023-02-08T11:59:36;6.27;;;5.40;;
73733;SDS011;62039;50.000;9.064;2023-02-08T12:02:10;6.73;;;5.77;;
73733;SDS011;62039;50.000;9.064;2023-02-08T12:04:52;6.60;;;5.70;;
73733;SDS011;62039;50.000;9.064;2023-02-08T12:07:19;6.20;;;5.07;;
73733;SDS011;62039;50.000;9.064;2023-02-08T12:09:57;6.70;;;5.90;;
73733;SDS011;62039;50.000;9.064;2023-02-08T12:12:46;6.50;;;5.20;;
73733;SDS011;62039;50.000;9.064;2023-02-08T12:15:22;6.13;;;5.27;;
73733;SDS011;62039;50.000;9.064;2023-02-08T12:18:00;6.50;;;5.13;;
73733;SDS011;62039;50.000;9.064;2023-02-08T12:20:39;7.20;;;5.33;;
73733;SDS011;62039;50.000;9.064;2023-02-08T12:23:29;6.97;;;5.00;;
73733;SDS011;62039;50.000;9.064;2023-02-08T12:26:09;6.03;;;5.00;;
73733;SDS011;62039;50.000;9.064;2023-02-08T12:28:44;5.33;;;4.37;;
73733;SDS011;62039;50.000;9.064;2023-02-08T12:31:22;4.53;;;3.83;;
73733;SDS011;62039;50.000;9.064;2023-02-08T12:34:00;4.40;;;4.00;;
73733;SDS011;62039;50.000;9.064;2023-02-08T12:36:48;6.60;;;4.37;;
73733;SDS011;62039;50.000;9.064;2023-02-08T12:39:28;4.57;;;3.67;;
73733;SDS011;62039;50.000;9.064;2023-02-08T12:42:11;5.90;;;4.67;;
73733;SDS011;62039;50.000;9.064;2023-02-08T12:44:49;5.30;;;4.10;;
73733;SDS011;62039;50.000;9.064;2023-02-08T12:47:31;4.27;;;3.80;;
73733;SDS011;62039;50.000;9.064;2023-02-08T12:50:13;4.33;;;3.80;;
73733;SDS011;62039;50.000;9.064;2023-02-08T12:52:47;5.10;;;4.40;;
73733;SDS011;62039;50.000;9.064;2023-02-08T12:55:17;5.57;;;4.73;;
73733;SDS011;62039;50.000;9.064;2023-02-08T12:57:49;6.07;;;4.53;;
73733;SDS011;62039;50.000;9.064;2023-02-08T13:00:20;6.23;;;4.97;;
73733;SDS011;62039;50.000;9.064;2023-02-08T13:02:50;4.87;;;4.37;;
73733;SDS011;62039;50.000;9.064;2023-02-08T13:05:24;5.40;;;4.17;;
73733;SDS011;62039;50.000;9.064;2023-02-08T13:07:58;5.37;;;4.83;;
73733;SDS011;62039;50.000;9.064;2023-02-08T13:10:32;5.83;;;5.07;;
73733;SDS011;62039;50.000;9.064;2023-02-08T13:13:05;5.43;;;4.83;;
73733;SDS011;62039;50.000;9.064;2023-02-08T13:15:39;6.53;;;5.90;;
73733;SDS011;62039;50.000;9.064;2023-02-08T13:18:11;7.43;;;6.33;;
73733;SDS011;62039;50.000;9.064;2023-02-08T13:20:43;7.90;;;5.83;;
73733;SDS011;62039;50.000;9.064;2023-02-08T13:23:14;6.80;;;6.10;;
73733;SDS011;62039;50.000;9.064;2023-02-08T13:25:45;6.40;;;5.53;;
73733;SDS011;62039;50.000;9.064;2023-02-08T13:28:16;6.93;;;5.63;;
73733;SDS011;62039;50.000;9.064;2023-02-08T13:30:46;5.47;;;4.97;;
73733;SDS011;62039;50.000;9.064;2023-02-08T13:33:26;8.13;;;5.67;;
73733;SDS011;62039;50.000;9.064;2023-02-08T13:35:56;5.73;;;5.10;;
73733;SDS011;62039;50.000;9.064;2023-02-08T13:38:26;5.73;;;5.13;;
73733;SDS011;62039;50.000;9.064;2023-02-08T13:41:02;6.50;;;5.47;;
73733;SDS011;62039;50.000;9.064;2023-02-08T13:43:34;6.53;;;5.03;;
73733;SDS011;62039;50.000;9.064;2023-02-08T13:46:05;6.97;;;6.23;;
73733;SDS011;62039;50.000;9.064;2023-02-08T13:48:39;6.70;;;5.33;;
73733;SDS011;62039;50.000;9.064;2023-02-08T13:54:17;6.43;;;5.83;;
73733;SDS011;62039;50.000;9.064;2023-02-08T13:56:44;6.57;;;5.90;;
73733;SDS011;62039;50.000;9.064;2023-02-08T13:59:29;7.43;;;5.90;;
73733;SDS011;62039;50.000;9.064;2023-02-08T14:08:00;6.00;;;5.40;;
73733;SDS011;62039;50.000;9.064;2023-02-08T14:10:31;6.20;;;5.60;;
73733;SDS011;62039;50.000;9.064;2023-02-08T14:13:03;8.23;;;6.10;;
73733;SDS011;62039;50.000;9.064;2023-02-08T14:15:41;6.20;;;5.60;;
73733;SDS011;62039;50.000;9.064;2023-02-08T14:18:22;6.60;;;5.77;;
73733;SDS011;62039;50.000;9.064;2023-02-08T14:20:56;6.73;;;5.60;;
73733;SDS011;62039;50.000;9.064;2023-02-08T14:23:27;8.00;;;6.20;;
73733;SDS011;62039;50.000;9.064;2023-02-08T14:25:57;6.77;;;6.00;;
73733;SDS011;62039;50.000;9.064;2023-02-08T14:28:28;10.83;;;5.40;;
73733;SDS011;62039;50.000;9.064;2023-02-08T14:30:57;6.47;;;5.50;;
73733;SDS011;62039;50.000;9.064;2023-02-08T14:33:27;6.77;;;5.30;;
73733;SDS011;62039;50.000;9.064;2023-02-08T14:35:57;6.13;;;5.33;;
73733;SDS011;62039;50.000;9.064;2023-02-08T14:41:42;5.77;;;4.77;;
73733;SDS011;62039;50.000;9.064;2023-02-08T14:50:36;4.93;;;4.30;;
73733;SDS011;62039;50.000;9.064;2023-02-08T14:53:14;5.10;;;4.57;;
73733;SDS011;62039;50.000;9.064;2023-02-08T14:55:47;6.07;;;5.00;;
73733;SDS011;62039;50.000;9.064;2023-02-08T14:58:21;6.53;;;4.87;;
73733;SDS011;62039;50.000;9.064;2023-02-08T15:00:51;7.00;;;4.90;;
73733;SDS011;62039;50.000;9.064;2023-02-08T15:03:20;5.43;;;4.53;;
73733;SDS011;62039;50.000;9.064;2023-02-08T15:06:01;5.10;;;4.50;;
73733;SDS011;62039;50.000;9.064;2023-02-08T15:08:40;8.80;;;5.77;;
73733;SDS011;62039;50.000;9.064;2023-02-08T15:11:16;7.47;;;5.57;;
73733;SDS011;62039;50.000;9.064;2023-02-08T15:13:48;7.20;;;5.07;;
73733;SDS011;62039;50.000;9.064;2023-02-08T15:16:16;5.77;;;4.97;;
73733;SDS011;62039;50.000;9.064;2023-02-08T15:18:43;6.43;;;4.90;;